Time;durP1;ratioP1;P1;durP2;ratioP2;P2;SDS_P1;SDS_P2;PMS_P1;PMS_P2;Temp;Humidity;BMP_temperature;BMP_pressure;BME280_temperature;BME280_humidity;BME280_pressure;Samples;Min_cycle;Max_cycle;Signal;HPM_P1;HPM_P2
2023/08/20 00:01:56;;;;;;;27.05;17.08;;;;;;;20.89;68.53;100380.06;4889217;29;21025;-73
2023/08/20 00:04:25;;;;;;;26.20;17.58;;;;;;;20.89;68.77;100373.00;4898969;29;20040;-71
2023/08/20 00:06:52;;;;;;;29.77;16.30;;;;;;;20.71;68.39;100342.88;4887195;29;20043;-72
2023/08/20 00:09:18;;;;;;;25.73;17.33;;;;;;;20.76;68.55;100354.16;4884247;29;20459;-74
2023/08/20 00:11:45;;;;;;;23.83;15.57;;;;;;;20.83;68.61;100367.97;4887538;29;20048;-73
2023/08/20 00:14:16;;;;;;;30.05;17.38;;;;;;;20.64;69.02;100330.81;4868215;29;20032;-74
2023/08/20 00:16:45;;;;;;;24.70;16.98;;;;;;;20.77;68.86;100353.22;4884826;29;20059;-73
2023/08/20 00:19:12;;;;;;;33.10;17.50;;;;;;;20.46;69.21;100314.81;4882878;29;20041;-74
2023/08/20 00:21:43;;;;;;;31.70;16.73;;;;;;;20.46;69.25;100317.47;4884425;29;20048;-72
2023/08/20 00:24:11;;;;;;;31.25;17.83;;;;;;;20.58;69.68;100339.88;4898971;29;20048;-73
2023/08/20 00:26:37;;;;;;;31.23;16.70;;;;;;;20.59;69.74;100332.81;4873522;29;20112;-73
2023/08/20 00:29:03;;;;;;;30.38;17.40;;;;;;;20.68;69.56;100355.38;4884210;29;20049;-72
2023/08/20 00:31:29;;;;;;;25.60;16.05;;;;;;;20.51;69.95;100324.34;4884166;29;20056;-73
2023/08/20 00:33:55;;;;;;;26.92;15.55;;;;;;;20.67;69.67;100348.38;4874355;29;20088;-73
2023/08/20 00:36:21;;;;;;;25.40;16.77;;;;;;;20.66;69.86;100349.28;4887692;29;20098;-70
2023/08/20 00:38:46;;;;;;;23.48;16.40;;;;;;;20.65;70.17;100348.41;4884088;29;20293;-73
2023/08/20 00:41:12;;;;;;;26.58;16.23;;;;;;;20.52;70.29;100326.94;4873945;29;20041;-72
2023/08/20 00:43:38;;;;;;;24.88;16.17;;;;;;;20.39;70.03;100296.66;4866982;29;21632;-73
2023/08/20 00:46:05;;;;;;;27.08;16.63;;;;;;;20.46;70.43;100312.19;4899977;29;20124;-72
2023/08/20 00:48:33;;;;;;;31.60;17.30;;;;;;;20.62;70.15;100333.53;4881975;29;20048;-71
2023/08/20 00:50:59;;;;;;;28.08;16.77;;;;;;;20.49;70.47;100311.22;4882467;29;20040;-72
2023/08/20 00:53:25;;;;;;;27.17;17.27;;;;;;;20.59;70.61;100327.53;4883723;29;20053;-71
2023/08/20 00:55:51;;;;;;;26.20;17.77;;;;;;;20.53;70.46;100320.72;4888484;29;20045;-71
2023/08/20 00:58:17;;;;;;;23.80;16.70;;;;;;;20.36;70.36;100295.00;4877285;29;20119;-71
2023/08/20 01:00:43;;;;;;;25.00;17.73;;;;;;;20.48;70.48;100317.41;4893520;29;20075;-70
2023/08/20 01:03:09;;;;;;;24.92;15.45;;;;;;;20.43;70.57;100308.81;4882242;29;20211;-71
2023/08/20 01:05:42;;;;;;;25.80;16.73;;;;;;;20.46;70.83;100314.81;4882719;29;20044;-70
2023/08/20 01:08:11;;;;;;;27.63;16.60;;;;;;;20.47;70.81;100311.25;4884942;29;20452;-71
2023/08/20 01:10:44;;;;;;;30.13;17.02;;;;;;;20.42;70.81;100312.38;4872349;29;20036;-70
2023/08/20 01:13:10;;;;;;;22.95;16.92;;;;;;;20.24;70.49;100299.03;4899301;29;20499;-71
2023/08/20 01:15:36;;;;;;;28.52;17.02;;;;;;;20.16;70.82;100307.25;4871445;29;20071;-71
2023/08/20 01:18:02;;;;;;;30.45;17.45;;;;;;;20.19;71.00;100321.28;4897696;29;20048;-71
2023/08/20 01:20:44;;;;;;;25.58;17.15;;;;;;;20.19;71.07;100324.75;4884505;29;20040;-71
2023/08/20 01:23:29;;;;;;;27.35;17.50;;;;;;;20.10;71.07;100326.00;4886267;29;20033;-71
2023/08/20 01:26:01;;;;;;;25.63;16.90;;;;;;;20.06;71.46;100332.31;4884754;29;20052;-71
2023/08/20 01:28:30;;;;;;;;;;;;;;;20.04;71.32;100330.66;4883931;29;20057;-71
2023/08/20 01:30:59;;;;;;;26.80;17.13;;;;;;;20.01;71.44;100329.00;4883402;29;19919;-70
2023/08/20 01:33:25;;;;;;;28.95;17.38;;;;;;;19.99;71.52;100328.19;4881737;29;20527;-71
2023/08/20 01:35:53;;;;;;;24.08;17.95;;;;;;;19.97;71.55;100327.41;4885124;29;20523;-72
2023/08/20 01:38:18;;;;;;;27.58;18.83;;;;;;;19.82;71.51;100307.72;4849212;29;20093;-71
2023/08/20 01:40:45;;;;;;;23.70;16.38;;;;;;;19.76;71.63;100303.53;4885583;29;20116;-71
2023/08/20 01:43:10;;;;;;;25.67;16.70;;;;;;;19.63;71.67;100281.19;4884428;29;20040;-72
2023/08/20 01:45:37;;;;;;;25.27;16.90;;;;;;;19.79;71.75;100321.88;4888133;29;20052;-71
2023/08/20 01:48:03;;;;;;;26.25;17.67;;;;;;;19.73;71.88;100322.16;4885873;29;21053;-71
2023/08/20 01:50:30;;;;;;;35.35;19.60;;;;;;;19.60;72.29;100312.97;4885535;29;20529;-71
2023/08/20 01:52:56;;;;;;;25.52;18.85;;;;;;;19.49;72.02;100297.53;4867506;29;20049;-71
2023/08/20 01:55:22;;;;;;;25.95;18.38;;;;;;;19.57;72.15;100325.34;4873108;29;20040;-71
2023/08/20 01:57:48;;;;;;;28.52;17.73;;;;;;;19.43;72.41;100311.84;4882313;29;20131;-71
2023/08/20 02:00:14;;;;;;;26.02;18.25;;;;;;;19.48;72.44;100325.72;4872687;29;20037;-72
2023/08/20 02:02:40;;;;;;;29.45;19.48;;;;;;;19.46;72.62;100329.31;4891536;29;20459;-72
2023/08/20 02:05:07;;;;;;;24.80;17.90;;;;;;;19.31;72.77;100307.03;4887425;29;20456;-71
2023/08/20 02:07:32;;;;;;;34.28;18.52;;;;;;;19.36;72.97;100331.44;4901783;29;20044;-72
2023/08/20 02:09:59;;;;;;;26.98;19.67;;;;;;;19.32;72.91;100320.16;4902986;29;20057;-73
2023/08/20 02:12:26;;;;;;;28.23;19.90;;;;;;;19.33;73.17;100336.81;4888867;29;20049;-72
2023/08/20 02:14:52;;;;;;;27.58;19.33;;;;;;;19.27;73.21;100330.88;4887379;29;20104;-72
2023/08/20 02:17:21;;;;;;;34.33;19.75;;;;;;;19.12;73.39;100297.13;4902903;29;20400;-72
2023/08/20 02:19:48;;;;;;;35.65;19.50;;;;;;;19.21;73.66;100323.19;4886495;29;20053;-72
2023/08/20 02:22:14;;;;;;;28.23;19.35;;;;;;;19.23;73.86;100324.00;4902932;29;20134;-71
2023/08/20 02:24:39;;;;;;;28.00;20.35;;;;;;;19.17;74.08;100321.56;4901856;29;20874;-71
2023/08/20 02:27:05;;;;;;;34.95;21.73;;;;;;;19.21;74.16;100328.47;4891473;29;20124;-72
2023/08/20 02:29:31;;;;;;;28.35;20.88;;;;;;;18.92;74.56;100280.22;4865297;29;20053;-73
2023/08/20 02:31:57;;;;;;;31.85;21.92;;;;;;;19.15;74.31;100306.72;4886385;29;20051;-72
2023/08/20 02:34:23;;;;;;;33.63;22.40;;;;;;;19.06;74.81;100273.63;4891909;29;20048;-72
2023/08/20 02:36:49;;;;;;;36.80;22.67;;;;;;;19.27;74.96;100301.88;4887535;29;20060;-73
2023/08/20 02:39:16;;;;;;;26.55;19.35;;;;;;;19.39;75.02;100305.81;4885826;29;20076;-71
2023/08/20 02:41:42;;;;;;;30.52;19.80;;;;;;;19.31;75.12;100283.28;4888251;29;20127;-73
2023/08/20 02:44:09;;;;;;;34.40;20.23;;;;;;;19.51;75.07;100319.44;4885390;29;20526;-71
2023/08/20 02:46:35;;;;;;;27.58;19.50;;;;;;;19.57;75.08;100319.22;4890951;29;20138;-71
2023/08/20 02:49:01;;;;;;;26.17;19.23;;;;;;;19.61;75.16;100326.13;4887460;29;20044;-71
2023/08/20 02:51:27;;;;;;;29.23;19.15;;;;;;;19.67;75.07;100325.00;4886759;29;20052;-72
2023/08/20 02:53:53;;;;;;;30.13;19.67;;;;;;;19.59;74.91;100305.97;4885100;29;20096;-73
2023/08/20 02:56:20;;;;;;;31.67;19.98;;;;;;;19.78;75.01;100325.44;4887535;29;20531;-73
2023/08/20 02:58:46;;;;;;;28.40;19.42;;;;;;;19.69;75.07;100302.91;4865656;29;20045;-72
2023/08/20 03:01:23;;;;;;;30.65;19.80;;;;;;;19.90;74.82;100325.94;4882988;29;20037;-73
2023/08/20 03:03:49;;;;;;;36.30;19.98;;;;;;;19.96;74.75;100326.53;4885167;29;20048;-69
2023/08/20 03:06:15;;;;;;;33.58;20.45;;;;;;;19.99;74.86;100321.16;4875030;29;20041;-70
2023/08/20 03:08:41;;;;;;;32.30;20.20;;;;;;;20.04;74.60;100313.03;4885039;29;20075;-72
2023/08/20 03:11:07;;;;;;;30.90;19.83;;;;;;;19.96;74.63;100286.09;4902718;29;20080;-71
2023/08/20 03:13:33;;;;;;;32.85;20.20;;;;;;;20.18;74.75;100299.25;4886477;29;20469;-71
2023/08/20 03:15:59;;;;;;;29.98;19.85;;;;;;;20.21;74.50;100291.22;4886221;29;20037;-72
2023/08/20 03:18:26;;;;;;;27.67;19.45;;;;;;;20.39;74.21;100297.53;4868189;29;20097;-71
2023/08/20 03:20:53;;;;;;;38.25;22.83;;;;;;;20.36;74.10;100287.09;4882171;29;20040;-71
2023/08/20 03:23:19;;;;;;;34.83;20.92;;;;;;;20.56;73.92;100301.22;4868922;29;20048;-71
2023/08/20 03:25:45;;;;;;;35.25;21.02;;;;;;;20.77;74.24;100320.63;4889942;29;20056;-72
2023/08/20 03:28:11;;;;;;;28.05;18.95;;;;;;;20.71;74.11;100291.78;4886148;29;20056;-72
2023/08/20 03:30:37;;;;;;;29.70;20.83;;;;;;;20.95;73.89;100294.31;4874029;29;20288;-72
2023/08/20 03:33:04;;;;;;;31.70;20.50;;;;;;;21.36;73.70;100328.63;4858222;29;20062;-71
2023/08/20 03:35:33;;;;;;;34.10;21.52;;;;;;;21.24;73.43;100287.72;4885279;29;20409;-71
2023/08/20 03:37:59;;;;;;;37.17;21.90;;;;;;;21.55;72.98;100336.56;4884349;29;20135;-73
2023/08/20 03:40:25;;;;;;;28.73;21.35;;;;;;;21.63;72.81;100326.53;4868715;29;20051;-72
2023/08/20 03:42:51;;;;;;;25.95;19.95;;;;;;;21.64;72.77;100309.72;4884584;29;20491;-70
2023/08/20 03:45:17;;;;;;;29.55;19.00;;;;;;;21.69;72.55;100304.19;4899457;29;20226;-72
2023/08/20 03:47:44;;;;;;;23.98;16.52;;;;;;;21.86;72.08;100313.09;4886598;29;20045;-72
2023/08/20 03:50:10;;;;;;;23.40;16.17;;;;;;;22.05;71.78;100313.09;4882551;29;20074;-75
2023/08/20 03:52:36;;;;;;;21.77;15.13;;;;;;;22.26;71.57;100319.97;4886148;29;20048;-71
2023/08/20 03:55:03;;;;;;;18.40;14.02;;;;;;;22.37;70.72;100311.50;4885590;29;20041;-71
2023/08/20 03:57:29;;;;;;;20.50;14.50;;;;;;;22.41;70.07;100299.81;4884591;29;20060;-70
2023/08/20 04:00:01;;;;;;;21.20;13.90;;;;;;;22.66;69.69;100313.63;4874230;29;20036;-71
2023/08/20 04:02:41;;;;;;;18.17;12.85;;;;;;;22.53;69.32;100281.59;4885920;29;20127;-71
2023/08/20 04:05:07;;;;;;;20.23;14.57;;;;;;;22.55;68.66;100285.00;4858304;29;20488;-72
2023/08/20 04:07:33;;;;;;;17.85;13.15;;;;;;;22.39;68.51;100276.97;4885081;29;20041;-71
2023/08/20 04:09:59;;;;;;;20.73;13.93;;;;;;;22.31;68.23;100309.16;4885048;29;20047;-72
2023/08/20 04:12:25;;;;;;;24.77;14.57;;;;;;;22.10;68.08;100333.13;4884680;29;20054;-72
2023/08/20 04:14:51;;;;;;;22.33;16.38;;;;;;;21.60;69.24;100301.97;4890274;29;20443;-71
2023/08/20 04:17:18;;;;;;;21.40;13.77;;;;;;;21.28;69.87;100333.41;4901289;29;20048;-71
2023/08/20 04:19:43;;;;;;;19.23;14.27;;;;;;;20.95;70.77;100360.44;4867450;29;20355;-71
2023/08/20 04:22:09;;;;;;;15.95;12.20;;;;;;;20.38;71.86;100324.88;4900184;29;20499;-72
2023/08/20 04:24:35;;;;;;;14.48;11.18;;;;;;;19.86;72.59;100252.09;4875280;29;20070;-72
2023/08/20 04:27:01;;;;;;;17.25;11.60;;;;;;;19.77;73.54;100246.31;4884710;29;20032;-71
2023/08/20 04:29:28;;;;;;;18.85;12.85;;;;;;;20.26;74.01;100343.84;4868290;29;20109;-72
2023/08/20 04:31:54;;;;;;;18.17;13.35;;;;;;;20.18;73.98;100338.88;4899627;29;20041;-72
2023/08/20 04:34:20;;;;;;;21.98;14.88;;;;;;;19.96;74.53;100304.56;4884652;29;20499;-72
2023/08/20 04:36:51;;;;;;;23.25;15.57;;;;;;;20.02;74.60;100328.06;4871148;29;20041;-71
2023/08/20 04:39:18;;;;;;;19.25;14.40;;;;;;;19.74;74.93;100286.03;4883455;29;20132;-72
2023/08/20 04:41:48;;;;;;;19.25;14.27;;;;;;;19.88;74.90;100325.97;4889931;29;20041;-73
2023/08/20 04:44:16;;;;;;;19.52;14.63;;;;;;;19.82;75.51;100324.41;4889102;29;20858;-71
2023/08/20 04:46:43;;;;;;;21.17;14.10;;;;;;;19.74;75.45;100310.66;4869535;29;20456;-73
2023/08/20 04:49:10;;;;;;;17.75;13.95;;;;;;;19.39;75.21;100283.84;4884420;29;20044;-73
2023/08/20 04:51:37;;;;;;;21.17;15.00;;;;;;;19.11;75.81;100269.91;4885854;29;20120;-72
2023/08/20 04:54:03;;;;;;;24.63;15.20;;;;;;;18.93;76.04;100245.03;4869846;29;20123;-71
2023/08/20 04:56:29;;;;;;;22.05;15.48;;;;;;;19.20;76.61;100273.13;4884638;29;20044;-72
2023/08/20 04:58:56;;;;;;;17.55;14.07;;;;;;;18.92;76.84;100224.84;4886501;29;20071;-72
2023/08/20 05:01:41;;;;;;;22.17;12.80;;;;;;;19.36;77.18;100273.41;4884873;29;20040;-70
2023/08/20 05:04:08;;;;;;;18.63;13.27;;;;;;;19.01;77.47;100220.19;4867381;29;20392;-72
2023/08/20 05:06:34;;;;;;;16.60;12.73;;;;;;;19.17;77.57;100223.97;4873207;29;20041;-71
2023/08/20 05:09:00;;;;;;;17.52;13.50;;;;;;;19.65;77.91;100279.34;4882556;29;20044;-72
2023/08/20 05:11:26;;;;;;;22.58;12.18;;;;;;;19.34;77.98;100214.53;4884964;29;20419;-71
2023/08/20 05:13:55;;;;;;;14.40;10.93;;;;;;;19.64;77.90;100259.13;4900431;29;20088;-70
2023/08/20 05:16:21;;;;;;;14.52;10.55;;;;;;;19.72;78.34;100275.53;4886558;29;20044;-72
2023/08/20 05:18:47;;;;;;;13.65;10.95;;;;;;;19.70;77.99;100245.72;4889857;29;20093;-72
2023/08/20 05:21:13;;;;;;;16.33;10.63;;;;;;;19.63;78.27;100209.91;4873846;29;20041;-73
2023/08/20 05:23:40;;;;;;;11.55;9.57;;;;;;;20.02;78.06;100272.59;4885371;29;20037;-75
2023/08/20 05:26:11;;;;;;;12.07;9.52;;;;;;;19.71;78.22;100190.19;4852559;29;20554;-72
2023/08/20 05:28:38;;;;;;;14.00;9.43;;;;;;;19.80;78.13;100186.31;4882980;29;20591;-71
2023/08/20 05:31:15;;;;;;;12.07;9.27;;;;;;;19.91;78.23;100185.06;4886693;29;20049;-73
2023/08/20 05:33:44;;;;;;;10.27;9.15;;;;;;;20.08;77.97;100173.78;4888414;29;20044;-72
2023/08/20 05:36:09;;;;;;;13.15;9.18;;;;;;;20.75;77.91;100236.06;4887141;29;20538;-74
2023/08/20 05:38:38;;;;;;;11.15;8.82;;;;;;;20.46;78.22;100147.47;4902657;29;20040;-75
2023/08/20 05:41:05;;;;;;;13.02;9.02;;;;;;;20.97;77.90;100166.34;4875870;29;20049;-72
2023/08/20 05:43:36;;;;;;;13.38;9.15;;;;;;;21.52;77.57;100199.94;4883566;29;20048;-74
2023/08/20 05:46:06;;;;;;;13.27;8.10;;;;;;;21.67;77.24;100181.59;4902188;29;20048;-74
2023/08/20 05:48:36;;;;;;;14.57;9.35;;;;;;;22.06;76.72;100169.97;4852940;29;20075;-76
2023/08/20 05:51:04;;;;;;;11.38;7.95;;;;;;;22.33;76.28;100142.94;4886422;29;20135;-73
2023/08/20 05:53:30;;;;;;;12.23;8.50;;;;;;;23.37;75.63;100219.69;4888965;29;20127;-72
2023/08/20 05:55:56;;;;;;;11.65;8.15;;;;;;;23.25;75.01;100114.19;4888478;29;20048;-74
2023/08/20 05:58:22;;;;;;;11.18;7.70;;;;;;;24.03;74.06;100161.09;4902531;29;20044;-70
2023/08/20 06:00:48;;;;;;;10.70;8.75;;;;;;;24.59;72.99;100129.31;4897979;29;20097;-73
2023/08/20 06:03:14;;;;;;;10.73;8.50;;;;;;;25.73;71.45;100213.53;4886868;29;20040;-74
2023/08/20 06:05:40;;;;;;;10.90;8.57;;;;;;;26.16;69.95;100173.34;4885349;29;20135;-73
2023/08/20 06:08:10;;;;;;;9.43;7.72;;;;;;;27.14;68.28;100208.44;4890475;29;20045;-73
2023/08/20 06:10:36;;;;;;;12.82;8.40;;;;;;;27.18;65.57;100108.44;4885280;29;20062;-73
2023/08/20 06:13:02;;;;;;;11.13;8.25;;;;;;;27.33;63.12;100083.25;4887369;29;20045;-74
2023/08/20 06:15:28;;;;;;;10.50;7.68;;;;;;;28.25;61.91;100205.59;4891734;29;20075;-72
2023/08/20 06:17:54;;;;;;;10.60;7.68;;;;;;;27.99;60.03;100138.06;4862647;29;20049;-73
2023/08/20 06:20:20;;;;;;;7.85;6.97;;;;;;;28.22;58.97;100152.34;4901672;29;20100;-74
2023/08/20 06:22:46;;;;;;;8.57;7.00;;;;;;;28.02;57.86;100116.44;4887113;29;20037;-74
2023/08/20 06:25:12;;;;;;;9.63;7.15;;;;;;;28.71;56.93;100205.66;4901833;29;20052;-71
2023/08/20 06:27:37;;;;;;;10.10;7.10;;;;;;;28.47;56.80;100128.16;4885179;29;20629;-73
2023/08/20 06:30:06;;;;;;;10.00;7.63;;;;;;;29.14;55.70;100202.25;4890086;29;20396;-74
2023/08/20 06:32:32;;;;;;;7.90;7.10;;;;;;;29.35;54.46;100180.03;4886746;29;20701;-73
2023/08/20 06:34:58;;;;;;;9.85;7.00;;;;;;;29.65;53.83;100191.91;4900773;29;20491;-74
2023/08/20 06:37:25;;;;;;;7.97;6.93;;;;;;;29.93;53.40;100169.97;4875214;29;20052;-72
2023/08/20 06:39:51;;;;;;;8.07;6.55;;;;;;;30.64;52.41;100183.56;4900989;29;20503;-76
2023/08/20 06:42:19;;;;;;;7.22;6.50;;;;;;;30.92;50.40;100173.06;4899303;29;20055;-74
2023/08/20 06:44:45;;;;;;;8.93;7.55;;;;;;;30.93;48.55;100187.31;4884849;29;20091;-72
2023/08/20 06:47:11;;;;;;;8.27;7.28;;;;;;;30.42;48.20;100154.19;4902358;29;20044;-79
2023/08/20 06:49:37;;;;;;;11.35;8.25;;;;;;;29.86;48.11;100108.81;4889749;29;20052;-74
2023/08/20 06:52:13;;;;;;;11.70;9.00;;;;;;;29.78;48.23;100121.16;4876591;29;20047;-72
2023/08/20 06:54:44;;;;;;;10.40;8.73;;;;;;;29.91;48.72;100151.31;4875278;29;20052;-73
2023/08/20 06:57:11;;;;;;;12.48;7.75;;;;;;;30.02;49.24;100126.28;4891266;29;20175;-73
2023/08/20 06:59:41;;;;;;;10.52;7.63;;;;;;;30.53;47.45;100161.28;4889558;29;20080;-75
2023/08/20 07:02:09;;;;;;;9.50;7.07;;;;;;;30.33;48.45;100113.75;4890440;29;20048;-75
2023/08/20 07:04:35;;;;;;;8.75;7.18;;;;;;;30.81;47.56;100186.59;4875830;29;20049;-73
2023/08/20 07:07:04;;;;;;;7.47;6.78;;;;;;;30.69;47.28;100193.06;4890933;29;20043;-73
2023/08/20 07:09:31;;;;;;;8.75;7.18;;;;;;;29.98;47.70;100128.38;4874998;29;20056;-75
2023/08/20 07:11:56;;;;;;;7.38;6.50;;;;;;;30.14;47.93;100192.31;4902171;29;20048;-74
2023/08/20 07:14:28;;;;;;;8.27;7.10;;;;;;;29.81;47.83;100193.31;4901042;29;20052;-72
2023/08/20 07:16:54;;;;;;;9.43;7.07;;;;;;;29.13;47.89;100138.94;4888096;29;20047;-75
2023/08/20 07:19:20;;;;;;;8.10;7.03;;;;;;;28.99;49.72;100171.34;4886729;29;20128;-73
2023/08/20 07:21:46;;;;;;;12.30;8.13;;;;;;;28.64;49.38;100116.09;4883988;29;20041;-75
2023/08/20 07:24:15;;;;;;;9.90;7.93;;;;;;;29.37;50.17;100162.03;4901992;29;20059;-76
2023/08/20 07:26:44;;;;;;;8.13;7.32;;;;;;;30.00;50.10;100088.03;4901174;29;21008;-74
2023/08/20 07:29:15;;;;;;;9.10;7.43;;;;;;;31.39;47.39;100140.22;4900905;29;20060;-74
2023/08/20 07:31:41;;;;;;;8.82;6.70;;;;;;;32.03;46.57;100166.69;4873331;29;20074;-76
2023/08/20 07:34:27;;;;;;;9.45;6.78;;;;;;;32.25;45.34;100051.59;4875269;29;20040;-74
2023/08/20 07:36:56;;;;;;;12.80;7.20;;;;;;;32.96;43.91;100071.66;4873432;29;20074;-76
2023/08/20 07:39:22;;;;;;;14.23;8.10;;;;;;;34.04;42.30;100156.22;4873315;29;20032;-76
2023/08/20 07:41:48;;;;;;;12.52;7.45;;;;;;;33.67;42.09;100079.88;4885149;29;20056;-73
2023/08/20 07:44:17;;;;;;;8.68;7.32;;;;;;;34.18;41.10;100117.81;4889931;29;20048;-73
2023/08/20 07:46:42;;;;;;;11.05;7.80;;;;;;;34.75;39.80;100113.72;4876573;29;20100;-73
2023/08/20 07:49:08;;;;;;;13.45;8.13;;;;;;;35.25;38.61;100100.31;4884464;29;20055;-74
2023/08/20 07:51:34;;;;;;;11.95;7.97;;;;;;;35.86;38.40;100108.94;4868752;29;20136;-75
2023/08/20 07:54:01;;;;;;;11.68;8.25;;;;;;;36.65;36.82;100101.13;4881622;29;20672;-73
2023/08/20 07:56:27;;;;;;;16.65;8.57;;;;;;;37.30;35.18;100123.44;4898570;29;20197;-74
2023/08/20 07:58:56;;;;;;;13.55;7.65;;;;;;;37.55;35.25;100080.69;4898308;29;20041;-74
2023/08/20 08:01:22;;;;;;;9.32;8.10;;;;;;;37.79;34.44;100085.06;4889019;29;20055;-74
2023/08/20 08:03:48;;;;;;;10.20;8.00;;;;;;;38.46;33.57;100138.69;4894754;29;20036;-75
2023/08/20 08:06:18;;;;;;;12.68;8.38;;;;;;;38.50;32.81;100061.22;4885049;29;20044;-74
2023/08/20 08:08:52;;;;;;;10.05;8.45;;;;;;;38.56;32.49;100014.22;4884464;29;20104;-74
2023/08/20 08:11:21;;;;;;;14.98;8.15;;;;;;;39.20;31.96;100064.22;4859273;29;20059;-75
2023/08/20 08:13:47;;;;;;;8.05;6.70;;;;;;;40.10;31.31;100137.19;4884315;29;20041;-73
2023/08/20 08:16:13;;;;;;;11.00;7.72;;;;;;;40.48;29.64;100078.75;4868949;29;20044;-75
2023/08/20 08:18:39;;;;;;;18.58;9.10;;;;;;;41.00;29.38;100037.38;4870900;29;20139;-72
2023/08/20 08:21:07;;;;;;;13.60;8.40;;;;;;;42.07;28.01;100096.53;4888379;29;20873;-75
2023/08/20 08:23:36;;;;;;;12.55;7.60;;;;;;;42.68;27.28;100070.66;4865790;29;20143;-74
2023/08/20 08:26:02;;;;;;;11.48;7.82;;;;;;;43.86;25.90;100081.13;4874284;29;20071;-75
2023/08/20 08:28:28;;;;;;;15.55;8.02;;;;;;;44.75;24.73;100092.72;4873209;29;20061;-74
2023/08/20 08:30:53;;;;;;;10.60;6.85;;;;;;;45.63;24.09;100109.50;4884086;29;20045;-73
2023/08/20 08:33:23;;;;;;;14.05;7.38;;;;;;;46.16;22.84;100024.38;4886258;29;20076;-73
2023/08/20 08:35:49;;;;;;;13.35;8.35;;;;;;;46.44;21.86;100084.09;4882023;29;20037;-74
2023/08/20 08:38:15;;;;;;;13.98;7.47;;;;;;;46.38;22.01;100049.28;4884904;29;20087;-73
2023/08/20 08:40:42;;;;;;;13.25;7.82;;;;;;;47.16;21.25;100091.97;4874326;29;20036;-73
2023/08/20 08:43:16;;;;;;;8.23;7.05;;;;;;;46.96;21.16;100070.47;4898939;29;20053;-74
2023/08/20 08:45:49;;;;;;;10.65;7.15;;;;;;;47.32;20.70;100091.19;4874415;29;20091;-72
2023/08/20 08:48:16;;;;;;;10.82;7.13;;;;;;;47.50;19.82;100064.44;4881270;29;20048;-73
2023/08/20 08:50:48;;;;;;;11.25;7.03;;;;;;;47.45;19.54;100034.06;4884568;29;20152;-75
2023/08/20 08:53:15;;;;;;;8.65;7.10;;;;;;;47.88;18.79;100037.16;4887329;29;20049;-73
2023/08/20 08:55:40;;;;;;;8.90;7.25;;;;;;;48.73;18.67;100091.09;4884613;29;20423;-74
2023/08/20 08:58:06;;;;;;;11.45;7.43;;;;;;;48.54;18.71;100050.06;4889592;29;20051;-75
2023/08/20 09:00:32;;;;;;;10.93;7.50;;;;;;;47.24;19.35;100025.50;4881382;29;20492;-72
2023/08/20 09:02:59;;;;;;;13.10;8.40;;;;;;;47.62;18.79;100078.97;4882579;29;20108;-74
2023/08/20 09:05:25;;;;;;;9.98;6.78;;;;;;;47.22;19.29;100052.47;4859402;29;20040;-73
2023/08/20 09:07:57;;;;;;;10.98;7.75;;;;;;;47.42;18.54;100024.41;4894571;29;20051;-74
2023/08/20 09:10:27;;;;;;;9.70;7.18;;;;;;;47.89;18.56;100042.41;4905615;29;20089;-77
2023/08/20 09:12:56;;;;;;;9.95;6.93;;;;;;;48.27;17.95;100083.94;4888911;29;20463;-73
2023/08/20 09:15:31;;;;;;;8.57;6.93;;;;;;;48.72;17.65;100092.19;4871806;29;20044;-73
2023/08/20 09:18:01;;;;;;;10.38;6.03;;;;;;;49.04;18.02;100064.59;4893978;29;20045;-74
2023/08/20 09:20:36;;;;;;;8.25;5.95;;;;;;;48.99;17.38;100042.47;4892525;29;20041;-73
2023/08/20 09:23:17;;;;;;;9.98;6.82;;;;;;;49.30;16.69;100084.16;4875653;29;20055;-75
2023/08/20 09:25:46;;;;;;;8.57;6.10;;;;;;;48.51;17.12;100034.03;4901985;29;20045;-72
2023/08/20 09:28:12;;;;;;;7.50;6.20;;;;;;;48.51;17.50;100075.41;4887853;29;20530;-74
2023/08/20 09:30:41;;;;;;;7.80;6.68;;;;;;;47.40;17.64;99973.41;4888611;29;20300;-75
2023/08/20 09:33:11;;;;;;;6.97;6.05;;;;;;;47.76;17.58;100023.50;4886877;29;20105;-75
2023/08/20 09:35:53;;;;;;;6.43;5.70;;;;;;;47.64;18.14;100016.19;4891781;29;20076;-75
2023/08/20 09:38:32;;;;;;;7.65;6.07;;;;;;;47.35;18.08;99963.16;4875031;29;20044;-76
2023/08/20 09:41:08;;;;;;;11.52;6.03;;;;;;;47.75;18.08;100038.38;4886921;29;20075;-74
2023/08/20 09:43:38;;;;;;;6.70;6.10;;;;;;;46.90;18.00;100000.72;4887381;29;20036;-75
2023/08/20 09:46:10;;;;;;;7.40;6.13;;;;;;;46.12;18.47;99991.06;4874749;29;20076;-75
2023/08/20 09:48:41;;;;;;;8.43;5.97;;;;;;;46.10;19.02;100030.88;4861083;29;20051;-75
2023/08/20 09:51:11;;;;;;;5.63;5.15;;;;;;;46.08;18.75;99947.84;4891421;29;20040;-75
2023/08/20 09:53:47;;;;;;;6.53;5.90;;;;;;;46.64;18.83;99980.19;4877796;29;20135;-80
2023/08/20 09:56:20;;;;;;;9.20;5.50;;;;;;;47.03;18.44;100014.16;4889669;29;20075;-75
2023/08/20 09:58:49;;;;;;;6.80;5.72;;;;;;;47.19;18.47;100003.41;4904698;29;20044;-77
2023/08/20 10:01:15;;;;;;;8.57;6.15;;;;;;;46.31;18.64;99966.97;4876138;29;20073;-78
2023/08/20 10:03:43;;;;;;;7.18;6.30;;;;;;;46.55;18.33;100010.88;4883842;29;20044;-77
2023/08/20 10:06:09;;;;;;;12.93;6.38;;;;;;;46.00;18.64;100015.00;4879044;29;20460;-78
2023/08/20 10:08:36;;;;;;;8.70;7.03;;;;;;;45.48;19.21;100018.50;4888021;29;20056;-76
2023/08/20 10:11:03;;;;;;;8.60;6.13;;;;;;;45.02;19.39;100005.38;4873985;29;20124;-75
2023/08/20 10:13:29;;;;;;;7.70;5.60;;;;;;;44.76;19.63;99993.75;4904716;29;20127;-77
2023/08/20 10:15:59;;;;;;;7.38;5.95;;;;;;;44.60;20.39;99997.16;4890963;29;20053;-77
2023/08/20 10:18:30;;;;;;;8.93;6.10;;;;;;;44.07;20.56;99994.91;4877738;29;20487;-77
2023/08/20 10:20:59;;;;;;;11.32;6.57;;;;;;;42.94;21.53;99964.88;4887412;29;20742;-77
2023/08/20 10:23:25;;;;;;;8.00;6.70;;;;;;;41.80;21.97;99930.84;4876663;29;20055;-76
2023/08/20 10:25:52;;;;;;;10.95;6.78;;;;;;;41.08;22.65;99936.22;4887409;29;20069;-78
2023/08/20 10:28:25;;;;;;;13.63;6.95;;;;;;;40.64;23.57;99984.84;4895281;29;20052;-77
2023/08/20 10:31:06;;;;;;;14.25;6.60;;;;;;;39.62;25.34;100010.78;4878682;29;20045;-77
2023/08/20 10:33:36;;;;;;;12.48;6.65;;;;;;;38.69;26.17;100000.78;4904631;29;20143;-77
2023/08/20 10:36:09;;;;;;;;;;;;;;;38.06;27.29;100003.16;4892553;29;20795;-76
2023/08/20 10:38:38;;;;;;;10.27;6.65;;;;;;;37.15;27.39;99901.91;4887637;29;19919;-76
2023/08/20 10:41:09;;;;;;;9.82;6.78;;;;;;;37.21;28.52;99984.38;4892567;29;20040;-79
2023/08/20 10:43:40;;;;;;;17.38;7.70;;;;;;;36.50;29.06;99981.84;4875975;29;20125;-76
2023/08/20 10:46:15;;;;;;;17.90;6.57;;;;;;;35.96;30.17;99978.88;4886649;29;20044;-78
2023/08/20 10:48:42;;;;;;;13.23;7.07;;;;;;;35.11;30.94;99902.66;4897073;29;20045;-76
2023/08/20 10:51:28;;;;;;;9.98;6.75;;;;;;;35.26;31.59;99973.09;4885672;29;20048;-77
2023/08/20 10:54:00;;;;;;;10.63;6.88;;;;;;;34.83;31.54;99962.41;4884935;29;20045;-76
2023/08/20 10:56:44;;;;;;;16.38;7.03;;;;;;;34.17;32.80;99897.50;4887479;29;20131;-76
2023/08/20 10:59:15;;;;;;;8.45;6.80;;;;;;;34.50;33.07;99966.94;4908884;29;20040;-74
2023/08/20 11:01:43;;;;;;;10.00;6.25;;;;;;;33.74;33.52;99883.16;4890364;29;20044;-76
2023/08/20 11:04:10;;;;;;;7.13;5.97;;;;;;;33.79;34.12;99959.91;4878288;29;20049;-76
2023/08/20 11:06:37;;;;;;;9.93;6.45;;;;;;;33.08;34.72;99915.13;4878426;29;20067;-75
2023/08/20 11:09:06;;;;;;;9.23;6.53;;;;;;;32.80;35.97;99929.53;4891606;29;20053;-78
2023/08/20 11:11:32;;;;;;;11.70;6.68;;;;;;;32.25;36.25;99895.50;4877420;29;20040;-76
2023/08/20 11:14:09;;;;;;;8.30;6.80;;;;;;;31.90;36.80;99886.38;4878541;29;20044;-76
2023/08/20 11:16:36;;;;;;;10.23;7.00;;;;;;;32.20;37.63;99965.09;4878974;29;20066;-76
2023/08/20 11:19:08;;;;;;;18.55;7.05;;;;;;;31.79;38.57;99941.19;4899298;29;20142;-75
2023/08/20 11:21:43;;;;;;;10.57;6.65;;;;;;;31.44;38.61;99921.22;4883082;29;20534;-76